Wilson Lahn — 8PUO — position and weather

sailwx.info

Track history (hours):
 
Tides and Currents Weather Stations Pressure Air Temp Water Temp Dewpoint Dewpoint Depression Visibility Wind Speed Wind Dir Waves Ship Positions

Wilson Lahn

Last reported at 2016-Sep-26 08:32 UTC. Time now 2016-Sep-28 20:33 UTC.
Position N 56°42' E 008°13'.

Length 83 m; draft 3.3 m.

Type: Cargo ship. MMSI: 314259000.

Date/timePositionNaut miles runAvg speedWind from/ knotsBaromVisibWave heightAir tempDewpointWater temp
2016-Sep-26 08:32N 56°42' E 008°13'61 2.8
2016-Sep-25 10:33N 55°45' E 007°30'1212.0
2016-Sep-25 09:34N 55°34' E 007°25'2412.1
2016-Sep-25 07:34N 55°10' E 007°28'3511.7
2016-Sep-25 04:33N 54°35' E 007°34'4010.0
2016-Sep-25 00:33N 54°01' E 008°12'2613.0
2016-Sep-24 22:33N 53°51' E 008°52'1414.0
2016-Sep-24 21:33N 53°53' E 009°15'2311.3
2016-Sep-24 19:33N 53°35' E 009°39'9 9.4
2016-Sep-24 18:33N 53°33' E 009°54'5 4.9
2016-Sep-24 17:33N 53°28' E 009°58'0 0.0
2016-Sep-24 16:31N 53°28' E 009°58'0 0.0
2016-Sep-24 14:31N 53°28' E 009°58'0 0.0
2016-Sep-24 12:31N 53°28' E 009°58'0 0.0
2016-Sep-24 10:31N 53°28' E 009°58'0 0.0
2016-Sep-24 09:25N 53°28' E 009°58'21 3.5
2016-Sep-24 03:33N 53°40' E 009°30'1212.1
2016-Sep-24 02:33N 53°51' E 009°20'1110.7
2016-Sep-24 01:33N 53°51' E 009°01'9 9.5
2016-Sep-24 00:34N 53°51' E 008°45'45 9.1
2016-Sep-23 19:33N 54°09' E 007°34'18 9.2
2016-Sep-23 17:33N 54°25' E 007°19'9 9.4
2016-Sep-23 16:33N 54°34' E 007°12'13 9.9
2016-Sep-23 15:13N 54°45' E 007°01'16 9.9
2016-Sep-23 13:34N 55°00' E 006°49'210 8.4
2016-Sep-22 12:33N 58°28' E 005°55'13 1.7
2016-Sep-22 04:34N 58°35' E 005°33'9 8.7
2016-Sep-22 03:33N 58°42' E 005°25'27 9.0
2016-Sep-22 00:34N 59°06' E 004°59'9 9.1
2016-Sep-21 23:33N 59°14' E 004°50'167 8.3
2016-Sep-21 03:28N 62°00' E 004°44'910.0
2016-Sep-21 02:33N 62°09' E 004°52'86 9.6
2016-Sep-20 17:33N 63°09' E 007°06'29 9.7
2016-Sep-20 14:33N 63°17' E 008°08'38 9.4
2016-Sep-20 10:33N 63°39' E 009°16'14 3.5
2016-Sep-20 06:28N 63°49' E 009°38'0 0.0
2016-Sep-19 23:31N 63°49' E 009°38'0 0.0
2016-Sep-19 16:25N 63°49' E 009°38'0 0.0
2016-Sep-19 13:25N 63°49' E 009°38'0 0.0
2016-Sep-19 11:25N 63°49' E 009°38'0 0.0
2016-Sep-19 03:19N 63°49' E 009°38'0 0.1
2016-Sep-19 00:23N 63°49' E 009°38'84 9.5
2016-Sep-18 15:33N 63°06' E 006°56'23611.4
2016-Sep-17 18:54N 59°18' E 004°47'30211.9
2016-Sep-16 17:30N 54°17' E 005°10'2311.8
2016-Sep-16 15:33N 53°54' E 005°01'6811.3
2016-Sep-16 09:33N 52°53' E 004°14'  
Track history (hours):
 
Tides and Currents Weather Stations Pressure Air Temp Water Temp Dewpoint Dewpoint Depression Visibility Wind Speed Wind Dir Waves Ship Positions

Wilson Lahn

Last reported at 2016-Sep-26 08:32 UTC. Time now 2016-Sep-28 20:33 UTC.
Position N 56°42' E 008°13'.

Length 83 m; draft 3.3 m.

Type: Cargo ship. MMSI: 314259000.

Date/timePositionNaut miles runAvg speedWind from/ knotsBaromVisibWave heightAir tempDewpointWater temp
2016-Sep-26 08:32N 56°42' E 008°13'61 2.8
2016-Sep-25 10:33N 55°45' E 007°30'1212.0
2016-Sep-25 09:34N 55°34' E 007°25'2412.1
2016-Sep-25 07:34N 55°10' E 007°28'3511.7
2016-Sep-25 04:33N 54°35' E 007°34'4010.0
2016-Sep-25 00:33N 54°01' E 008°12'2613.0
2016-Sep-24 22:33N 53°51' E 008°52'1414.0
2016-Sep-24 21:33N 53°53' E 009°15'2311.3
2016-Sep-24 19:33N 53°35' E 009°39'9 9.4
2016-Sep-24 18:33N 53°33' E 009°54'5 4.9
2016-Sep-24 17:33N 53°28' E 009°58'0 0.0
2016-Sep-24 16:31N 53°28' E 009°58'0 0.0
2016-Sep-24 14:31N 53°28' E 009°58'0 0.0
2016-Sep-24 12:31N 53°28' E 009°58'0 0.0
2016-Sep-24 10:31N 53°28' E 009°58'0 0.0
2016-Sep-24 09:25N 53°28' E 009°58'21 3.5
2016-Sep-24 03:33N 53°40' E 009°30'1212.1
2016-Sep-24 02:33N 53°51' E 009°20'1110.7
2016-Sep-24 01:33N 53°51' E 009°01'9 9.5
2016-Sep-24 00:34N 53°51' E 008°45'45 9.1
2016-Sep-23 19:33N 54°09' E 007°34'18 9.2
2016-Sep-23 17:33N 54°25' E 007°19'9 9.4
2016-Sep-23 16:33N 54°34' E 007°12'13 9.9
2016-Sep-23 15:13N 54°45' E 007°01'16 9.9
2016-Sep-23 13:34N 55°00' E 006°49'210 8.4
2016-Sep-22 12:33N 58°28' E 005°55'13 1.7
2016-Sep-22 04:34N 58°35' E 005°33'9 8.7
2016-Sep-22 03:33N 58°42' E 005°25'27 9.0
2016-Sep-22 00:34N 59°06' E 004°59'9 9.1
2016-Sep-21 23:33N 59°14' E 004°50'167 8.3
2016-Sep-21 03:28N 62°00' E 004°44'910.0
2016-Sep-21 02:33N 62°09' E 004°52'86 9.6
2016-Sep-20 17:33N 63°09' E 007°06'29 9.7
2016-Sep-20 14:33N 63°17' E 008°08'38 9.4
2016-Sep-20 10:33N 63°39' E 009°16'14 3.5
2016-Sep-20 06:28N 63°49' E 009°38'0 0.0
2016-Sep-19 23:31N 63°49' E 009°38'0 0.0
2016-Sep-19 16:25N 63°49' E 009°38'0 0.0
2016-Sep-19 13:25N 63°49' E 009°38'0 0.0
2016-Sep-19 11:25N 63°49' E 009°38'0 0.0
2016-Sep-19 03:19N 63°49' E 009°38'0 0.1
2016-Sep-19 00:23N 63°49' E 009°38'84 9.5
2016-Sep-18 15:33N 63°06' E 006°56'23611.4
2016-Sep-17 18:54N 59°18' E 004°47'30211.9
2016-Sep-16 17:30N 54°17' E 005°10'2311.8
2016-Sep-16 15:33N 53°54' E 005°01'6811.3
2016-Sep-16 09:33N 52°53' E 004°14'  

Dump ship's entire track history